createdAt,value
2023-05-25T00:00:49.725Z,452.70
2023-05-25T00:01:39.024Z,462.80
2023-05-25T00:02:39.245Z,474.30
2023-05-25T00:03:39.039Z,476.40
2023-05-25T00:04:39.075Z,490.50
2023-05-25T00:05:38.948Z,479.10
2023-05-25T00:06:38.953Z,480.30
2023-05-25T00:07:38.944Z,497.50
2023-05-25T00:08:38.944Z,467.30
2023-05-25T00:09:38.957Z,477.80
2023-05-25T00:10:38.932Z,475.30
2023-05-25T00:11:38.938Z,486.30
2023-05-25T00:12:38.923Z,480.70
2023-05-25T00:13:38.923Z,377.60
2023-05-25T00:14:38.927Z,640.80
2023-05-25T00:15:38.934Z,494.00
2023-05-25T00:16:38.947Z,511.60
2023-05-25T00:17:38.964Z,478.60
2023-05-25T00:18:38.912Z,448.20
2023-05-25T00:19:38.913Z,400.70
2023-05-25T00:20:39.029Z,422.40
2023-05-25T00:21:38.901Z,439.70
2023-05-25T00:22:38.933Z,445.40
2023-05-25T00:23:38.899Z,426.00
2023-05-25T00:24:38.893Z,410.70
2023-05-25T00:25:38.929Z,413.40
2023-05-25T00:26:38.880Z,428.00
2023-05-25T00:27:38.886Z,397.20
2023-05-25T00:28:38.866Z,393.30
2023-05-25T00:29:38.861Z,406.40
2023-05-25T00:30:38.994Z,407.50
2023-05-25T00:31:38.929Z,408.20
2023-05-25T00:32:38.883Z,384.70
2023-05-25T00:33:38.861Z,405.50
2023-05-25T00:34:38.865Z,398.60
2023-05-25T00:35:38.852Z,403.20
2023-05-25T00:36:38.846Z,424.70
2023-05-25T00:37:38.852Z,387.00
2023-05-25T00:38:38.836Z,386.60
2023-05-25T00:39:38.829Z,500.30
2023-05-25T00:40:38.824Z,660.10
2023-05-25T00:41:38.848Z,400.10
2023-05-25T00:42:38.823Z,461.60
2023-05-25T00:43:38.819Z,455.90
2023-05-25T00:44:38.817Z,440.20
2023-05-25T00:45:38.814Z,410.50
2023-05-25T00:46:38.943Z,396.00
2023-05-25T00:47:39.282Z,383.40
2023-05-25T00:48:38.801Z,409.20
2023-05-25T00:49:38.828Z,395.00
2023-05-25T00:50:38.790Z,353.30
2023-05-25T00:51:38.796Z,338.30
2023-05-25T00:52:38.782Z,333.30
2023-05-25T00:53:38.780Z,315.30
2023-05-25T00:54:38.783Z,315.20
2023-05-25T00:55:38.782Z,289.10
2023-05-25T00:56:38.788Z,468.10
2023-05-25T00:57:38.790Z,467.40
2023-05-25T00:58:38.764Z,142.10
2023-05-25T00:59:38.760Z,164.90
2023-05-25T01:00:38.772Z,493.90
2023-05-25T01:01:38.792Z,499.40
2023-05-25T01:02:38.917Z,490.50
2023-05-25T01:03:38.835Z,466.80
2023-05-25T01:04:38.739Z,411.40
2023-05-25T01:05:38.740Z,412.10
2023-05-25T01:06:38.732Z,390.90
2023-05-25T01:07:38.729Z,397.30
2023-05-25T01:08:38.726Z,410.10
2023-05-25T01:09:38.723Z,411.80
2023-05-25T01:10:38.716Z,431.20
2023-05-25T01:11:38.712Z,416.90
2023-05-25T01:12:38.711Z,403.90
2023-05-25T01:13:38.730Z,430.90
2023-05-25T01:14:38.709Z,431.80
2023-05-25T01:15:38.698Z,427.10
2023-05-25T01:16:38.726Z,421.80
2023-05-25T01:17:38.762Z,428.90
2023-05-25T01:18:38.689Z,437.10
2023-05-25T01:19:38.685Z,425.90
2023-05-25T01:20:38.704Z,441.20
2023-05-25T01:21:38.686Z,451.50
2023-05-25T01:22:38.672Z,413.60
2023-05-25T01:23:38.673Z,463.60
2023-05-25T01:24:38.664Z,430.40
2023-05-25T01:25:38.672Z,465.10
2023-05-25T01:26:38.661Z,470.30
2023-05-25T01:27:38.658Z,495.20
2023-05-25T01:28:38.667Z,475.80
2023-05-25T01:29:38.679Z,468.80
2023-05-25T01:30:38.645Z,460.50
2023-05-25T01:31:38.657Z,483.20
2023-05-25T01:32:38.706Z,481.30
2023-05-25T01:33:38.633Z,495.00
2023-05-25T01:34:38.637Z,494.90
2023-05-25T01:35:38.626Z,530.00
2023-05-25T01:36:38.621Z,524.20
2023-05-25T01:37:38.615Z,533.30
2023-05-25T01:38:38.631Z,535.20
2023-05-25T01:39:38.609Z,543.90
2023-05-25T01:40:38.608Z,538.90
2023-05-25T01:41:38.601Z,496.60
2023-05-25T01:42:38.596Z,483.00
2023-05-25T01:43:38.592Z,394.50
2023-05-25T01:44:38.587Z,156.40
2023-05-25T01:45:38.699Z,362.40
2023-05-25T01:46:38.621Z,501.70
2023-05-25T01:47:38.594Z,530.70
2023-05-25T01:48:38.570Z,549.80
2023-05-25T01:49:38.572Z,509.70
2023-05-25T01:50:38.566Z,456.40
2023-05-25T01:51:38.579Z,458.40
2023-05-25T01:52:38.554Z,418.70
2023-05-25T01:53:38.560Z,450.20
2023-05-25T01:54:38.550Z,443.30
2023-05-25T01:55:38.547Z,455.80
2023-05-25T01:56:38.545Z,449.80
2023-05-25T01:57:38.551Z,460.00
2023-05-25T01:58:38.539Z,478.50
2023-05-25T01:59:38.530Z,483.50
2023-05-25T02:00:38.529Z,451.20
2023-05-25T02:01:38.710Z,441.10
2023-05-25T02:02:38.561Z,450.40
2023-05-25T02:03:38.517Z,458.50
2023-05-25T02:04:38.547Z,449.30
2023-05-25T02:05:38.510Z,477.40
2023-05-25T02:06:38.506Z,467.50
2023-05-25T02:07:38.507Z,486.00
2023-05-25T02:08:38.501Z,446.60
2023-05-25T02:09:38.496Z,454.30
2023-05-25T02:10:38.494Z,444.70
2023-05-25T02:11:38.487Z,472.60
2023-05-25T02:12:38.484Z,460.40
2023-05-25T02:13:38.481Z,462.20
2023-05-25T02:14:38.484Z,476.20
2023-05-25T02:15:38.493Z,124.40
2023-05-25T02:16:38.503Z,132.70
2023-05-25T02:17:38.612Z,380.00
2023-05-25T02:18:38.473Z,505.90
2023-05-25T02:19:38.459Z,539.90
2023-05-25T02:20:38.482Z,533.90
2023-05-25T02:21:38.460Z,478.40
2023-05-25T02:22:38.450Z,440.70
2023-05-25T02:23:38.443Z,440.80
2023-05-25T02:24:38.523Z,447.20
2023-05-25T02:25:38.453Z,466.60
2023-05-25T02:26:38.441Z,470.90
2023-05-25T02:27:38.429Z,407.50
2023-05-25T02:28:38.429Z,167.00
2023-05-25T02:29:38.427Z,198.90
2023-05-25T02:30:38.416Z,409.90
2023-05-25T02:31:38.453Z,461.20
2023-05-25T02:32:38.428Z,453.70
2023-05-25T02:33:38.620Z,433.10
2023-05-25T02:34:38.401Z,393.00
2023-05-25T02:35:38.416Z,363.60
2023-05-25T02:36:38.401Z,354.30
2023-05-25T02:37:38.390Z,360.30
2023-05-25T02:38:38.387Z,377.50
2023-05-25T02:39:38.386Z,363.80
2023-05-25T02:40:38.410Z,357.40
2023-05-25T02:41:38.382Z,382.50
2023-05-25T02:42:38.394Z,387.60
2023-05-25T02:43:38.368Z,404.30
2023-05-25T02:44:38.370Z,383.70
2023-05-25T02:45:38.364Z,383.30
2023-05-25T02:46:38.407Z,392.90
2023-05-25T02:47:38.373Z,375.00
2023-05-25T02:48:38.360Z,385.40
2023-05-25T02:49:38.375Z,393.30
2023-05-25T02:50:38.339Z,390.10
2023-05-25T02:51:38.331Z,90.60
2023-05-25T02:52:38.482Z,125.70
2023-05-25T02:53:38.331Z,434.60
2023-05-25T02:54:38.322Z,464.30
2023-05-25T02:55:38.318Z,424.90
2023-05-25T02:56:38.327Z,385.20
2023-05-25T02:57:38.311Z,354.30
2023-05-25T02:58:38.308Z,345.60
2023-05-25T02:59:38.305Z,357.60
2023-05-25T03:00:38.324Z,367.40
2023-05-25T03:01:38.295Z,358.20
2023-05-25T03:02:38.339Z,365.70
2023-05-25T03:03:38.309Z,355.90
2023-05-25T03:04:38.279Z,368.80
2023-05-25T03:05:38.321Z,348.70
2023-05-25T03:06:38.271Z,354.40
2023-05-25T03:07:38.272Z,363.80
2023-05-25T03:08:38.265Z,375.50
2023-05-25T03:09:38.262Z,380.50
2023-05-25T03:10:38.258Z,368.10
2023-05-25T03:11:38.256Z,349.70
2023-05-25T03:12:38.254Z,352.50
2023-05-25T03:13:38.245Z,345.00
2023-05-25T03:14:38.242Z,354.20
2023-05-25T03:15:38.243Z,377.90
2023-05-25T03:16:38.244Z,88.30
2023-05-25T03:17:38.254Z,137.80
2023-05-25T03:18:38.231Z,380.20
2023-05-25T03:19:38.242Z,413.80
2023-05-25T03:20:38.366Z,390.60
2023-05-25T03:21:38.265Z,383.70
2023-05-25T03:22:38.210Z,347.00
2023-05-25T03:23:38.208Z,309.10
2023-05-25T03:24:38.207Z,335.90
2023-05-25T03:25:38.197Z,369.60
2023-05-25T03:26:38.203Z,348.20
2023-05-25T03:27:38.192Z,320.10
2023-05-25T03:28:38.188Z,304.90
2023-05-25T03:29:38.192Z,321.90
2023-05-25T03:30:38.179Z,305.90
2023-05-25T03:31:38.196Z,316.20
2023-05-25T03:32:38.208Z,328.10
2023-05-25T03:33:38.168Z,319.70
2023-05-25T03:34:38.164Z,313.20
2023-05-25T03:35:38.162Z,321.90
2023-05-25T03:36:38.157Z,341.50
2023-05-25T03:37:38.179Z,335.60
2023-05-25T03:38:38.153Z,336.10
2023-05-25T03:39:38.148Z,336.70
2023-05-25T03:40:38.140Z,333.80
2023-05-25T03:41:38.137Z,373.20
2023-05-25T03:42:38.136Z,340.50
2023-05-25T03:43:38.131Z,363.10
2023-05-25T03:44:40.463Z,349.70
2023-05-25T03:45:38.122Z,352.80
2023-05-25T03:46:38.173Z,354.20
2023-05-25T03:47:38.162Z,357.20
2023-05-25T03:48:38.116Z,345.50
2023-05-25T03:49:38.117Z,339.70
2023-05-25T03:50:38.108Z,334.50
2023-05-25T03:51:38.095Z,350.90
2023-05-25T03:52:38.103Z,362.40
2023-05-25T03:53:38.112Z,358.00
2023-05-25T03:54:38.089Z,358.00
2023-05-25T03:55:38.079Z,359.60
2023-05-25T03:56:38.078Z,358.70
2023-05-25T03:57:38.275Z,375.10
2023-05-25T03:58:38.097Z,344.30
2023-05-25T03:59:38.085Z,349.40
2023-05-25T04:00:38.082Z,364.70
2023-05-25T04:01:38.081Z,356.60
2023-05-25T04:02:38.114Z,354.40
2023-05-25T04:03:38.262Z,351.50
2023-05-25T04:04:38.081Z,354.70
2023-05-25T04:05:38.041Z,187.00
2023-05-25T04:06:38.044Z,170.50
2023-05-25T04:07:38.034Z,338.00
2023-05-25T04:08:38.032Z,381.80
2023-05-25T04:09:38.059Z,415.40
2023-05-25T04:10:38.022Z,379.40
2023-05-25T04:11:38.015Z,347.00
2023-05-25T04:12:38.013Z,356.90
2023-05-25T04:13:38.012Z,363.00
2023-05-25T04:14:38.009Z,356.90
2023-05-25T04:15:37.998Z,355.60
2023-05-25T04:16:38.051Z,335.10
2023-05-25T04:17:39.389Z,125.60
2023-05-25T04:18:37.990Z,207.50
2023-05-25T04:19:37.992Z,391.80
2023-05-25T04:20:38.213Z,382.20
2023-05-25T04:21:37.984Z,361.60
2023-05-25T04:22:37.981Z,351.60
2023-05-25T04:23:37.968Z,331.20
2023-05-25T04:24:37.979Z,341.20
2023-05-25T04:25:37.981Z,333.70
2023-05-25T04:26:37.958Z,308.70
2023-05-25T04:27:37.954Z,302.70
2023-05-25T04:28:37.951Z,323.20
2023-05-25T04:29:37.954Z,319.40
2023-05-25T04:30:37.941Z,313.70
2023-05-25T04:31:37.980Z,321.40
2023-05-25T04:32:37.956Z,320.00
2023-05-25T04:33:37.927Z,334.30
2023-05-25T04:34:37.939Z,329.80
2023-05-25T04:35:37.920Z,330.50
2023-05-25T04:36:37.915Z,306.80
2023-05-25T04:37:37.912Z,317.90
2023-05-25T04:38:37.915Z,325.30
2023-05-25T04:39:37.901Z,343.60
2023-05-25T04:40:37.900Z,329.10
2023-05-25T04:41:37.912Z,350.70
2023-05-25T04:42:37.897Z,314.10
2023-05-25T04:43:39.144Z,309.30
2023-05-25T04:44:37.899Z,303.90
2023-05-25T04:45:37.934Z,303.40
2023-05-25T04:46:37.926Z,317.90
2023-05-25T04:47:37.891Z,318.30
2023-05-25T04:48:37.869Z,309.30
2023-05-25T04:49:37.868Z,310.30
2023-05-25T04:50:37.861Z,313.50
2023-05-25T04:51:37.850Z,310.70
2023-05-25T04:52:37.852Z,305.20
2023-05-25T04:53:37.850Z,309.70
2023-05-25T04:54:37.847Z,311.00
2023-05-25T04:55:37.834Z,302.90
2023-05-25T04:56:37.833Z,302.70
2023-05-25T04:57:37.878Z,331.10
2023-05-25T04:58:37.829Z,328.70
2023-05-25T04:59:37.836Z,356.70
2023-05-25T05:00:37.833Z,349.20
2023-05-25T05:01:37.869Z,353.70
2023-05-25T05:02:37.997Z,362.70
2023-05-25T05:03:37.834Z,380.90
2023-05-25T05:04:37.824Z,351.40
2023-05-25T05:05:37.822Z,333.20
2023-05-25T05:06:37.803Z,333.60
2023-05-25T05:07:37.792Z,339.60
2023-05-25T05:08:37.791Z,346.40
2023-05-25T05:09:37.787Z,335.00
2023-05-25T05:10:37.807Z,344.10
2023-05-25T05:11:37.799Z,351.30
2023-05-25T05:12:37.774Z,341.10
2023-05-25T05:13:37.787Z,347.10
2023-05-25T05:14:37.790Z,359.40
2023-05-25T05:15:37.762Z,364.60
2023-05-25T05:16:37.825Z,358.60
2023-05-25T05:17:37.763Z,364.70
2023-05-25T05:18:37.751Z,355.50
2023-05-25T05:19:37.748Z,358.40
2023-05-25T05:20:37.780Z,361.00
2023-05-25T05:21:37.747Z,364.20
2023-05-25T05:22:37.743Z,357.90
2023-05-25T05:23:37.735Z,371.80
2023-05-25T05:24:37.731Z,378.20
2023-05-25T05:25:37.725Z,360.40
2023-05-25T05:26:48.210Z,360.90
2023-05-25T05:27:37.733Z,372.10
2023-05-25T05:28:37.718Z,350.10
2023-05-25T05:29:37.791Z,367.20
2023-05-25T05:30:37.711Z,355.60
2023-05-25T05:31:37.745Z,349.10
2023-05-25T05:32:37.760Z,343.50
2023-05-25T05:33:37.758Z,360.80
2023-05-25T05:34:37.739Z,358.50
2023-05-25T05:35:37.710Z,361.40
2023-05-25T05:36:48.869Z,380.70
2023-05-25T05:37:37.693Z,364.00
2023-05-25T05:38:39.955Z,377.10
2023-05-25T05:39:37.681Z,357.90
2023-05-25T05:40:37.695Z,360.20
2023-05-25T05:41:37.670Z,367.10
2023-05-25T05:42:37.687Z,330.70
2023-05-25T05:43:37.673Z,322.40
2023-05-25T05:44:37.662Z,348.90
2023-05-25T05:45:37.710Z,352.60
2023-05-25T05:46:37.765Z,343.70
2023-05-25T05:47:37.755Z,382.40
2023-05-25T05:48:37.647Z,363.50
2023-05-25T05:49:37.639Z,342.30
2023-05-25T05:50:39.568Z,366.30
2023-05-25T05:51:37.662Z,368.00
2023-05-25T05:52:37.647Z,363.60
2023-05-25T05:53:37.655Z,337.80
2023-05-25T05:54:37.627Z,348.60
2023-05-25T05:55:37.629Z,350.10
2023-05-25T05:56:37.625Z,354.20
2023-05-25T05:57:37.647Z,355.30
2023-05-25T05:58:37.614Z,348.10
2023-05-25T05:59:37.611Z,362.50
2023-05-25T06:00:37.632Z,371.30
2023-05-25T06:01:37.677Z,369.60
2023-05-25T06:02:40.698Z,370.30
2023-05-25T06:03:37.610Z,362.50
2023-05-25T06:04:37.595Z,366.80
2023-05-25T06:05:37.644Z,360.20
2023-05-25T06:06:37.585Z,357.70
2023-05-25T06:07:37.582Z,369.30
2023-05-25T06:08:37.589Z,372.30
2023-05-25T06:09:37.589Z,370.20
2023-05-25T06:10:37.576Z,378.30
2023-05-25T06:11:37.606Z,396.20
2023-05-25T06:12:37.576Z,380.50
2023-05-25T06:13:37.556Z,394.50
2023-05-25T06:14:37.563Z,399.80
2023-05-25T06:15:37.563Z,378.70
2023-05-25T06:16:37.632Z,385.10
2023-05-25T06:17:37.686Z,406.00
2023-05-25T06:18:37.548Z,401.10
2023-05-25T06:19:37.548Z,403.40
2023-05-25T06:20:37.646Z,409.80
2023-05-25T06:21:37.539Z,417.20
2023-05-25T06:22:37.532Z,414.00
2023-05-25T06:23:37.531Z,405.90
2023-05-25T06:24:37.525Z,384.10
2023-05-25T06:25:37.524Z,384.90
2023-05-25T06:26:37.547Z,383.80
2023-05-25T06:27:37.513Z,385.60
2023-05-25T06:28:37.522Z,385.70
2023-05-25T06:29:37.513Z,412.50
2023-05-25T06:30:37.508Z,359.90
2023-05-25T06:31:37.553Z,396.70
2023-05-25T06:32:37.523Z,393.50
2023-05-25T06:33:37.542Z,393.40
2023-05-25T06:34:38.312Z,392.60
2023-05-25T06:35:37.493Z,423.90
2023-05-25T06:36:37.485Z,397.10
2023-05-25T06:37:37.481Z,404.70
2023-05-25T06:38:37.480Z,382.70
2023-05-25T06:39:37.478Z,373.60
2023-05-25T06:40:37.476Z,389.20
2023-05-25T06:41:37.474Z,392.30
2023-05-25T06:42:37.468Z,383.20
2023-05-25T06:43:37.473Z,387.60
2023-05-25T06:44:37.459Z,382.80
2023-05-25T06:45:37.466Z,378.00
2023-05-25T06:46:37.485Z,372.20
2023-05-25T06:47:37.528Z,367.70
2023-05-25T06:48:37.457Z,370.70
2023-05-25T06:49:37.469Z,371.80
2023-05-25T06:50:37.465Z,375.10
2023-05-25T06:51:37.488Z,384.70
2023-05-25T06:52:37.444Z,363.10
2023-05-25T06:53:37.432Z,389.20
2023-05-25T06:54:37.432Z,385.30
2023-05-25T06:55:37.446Z,404.60
2023-05-25T06:56:37.428Z,403.10
2023-05-25T06:57:37.422Z,398.70
2023-05-25T06:58:37.440Z,399.00
2023-05-25T06:59:37.423Z,390.20
2023-05-25T07:00:37.416Z,399.80
2023-05-25T07:01:37.439Z,422.60
2023-05-25T07:02:37.437Z,389.20
2023-05-25T07:03:37.405Z,395.10
2023-05-25T07:04:37.456Z,400.40
2023-05-25T07:05:37.423Z,418.20
2023-05-25T07:06:37.404Z,384.60
2023-05-25T07:07:37.396Z,399.30
2023-05-25T07:08:37.399Z,392.40
2023-05-25T07:09:37.393Z,364.20
2023-05-25T07:10:37.390Z,363.10
2023-05-25T07:11:37.386Z,400.90
2023-05-25T07:12:37.384Z,404.70
2023-05-25T07:13:37.381Z,359.90
2023-05-25T07:14:37.396Z,389.40
2023-05-25T07:15:37.383Z,375.20
2023-05-25T07:16:37.439Z,404.70
2023-05-25T07:17:37.435Z,426.40
2023-05-25T07:18:37.376Z,417.10
2023-05-25T07:19:37.371Z,414.30
2023-05-25T07:20:37.434Z,394.30
2023-05-25T07:21:37.443Z,385.20
2023-05-25T07:22:37.369Z,385.70
2023-05-25T07:23:37.376Z,379.30
2023-05-25T07:24:37.356Z,413.20
2023-05-25T07:25:37.350Z,414.70
2023-05-25T07:26:37.354Z,406.00
2023-05-25T07:27:37.374Z,443.80
2023-05-25T07:28:37.350Z,434.10
2023-05-25T07:29:37.341Z,451.90
2023-05-25T07:30:37.342Z,474.70
2023-05-25T07:31:37.425Z,452.60
2023-05-25T07:32:37.365Z,475.60
2023-05-25T07:33:37.330Z,460.10
2023-05-25T07:34:37.331Z,468.50
2023-05-25T07:35:37.325Z,452.70
2023-05-25T07:36:37.325Z,464.00
2023-05-25T07:37:37.362Z,448.70
2023-05-25T07:38:37.324Z,487.90
2023-05-25T07:39:37.314Z,441.00
2023-05-25T07:40:37.322Z,446.70
2023-05-25T07:41:37.312Z,440.00
2023-05-25T07:42:37.314Z,468.60
2023-05-25T07:43:37.311Z,471.70
2023-05-25T07:44:37.307Z,442.80
2023-05-25T07:45:37.304Z,451.30
2023-05-25T07:46:37.328Z,436.10
2023-05-25T07:47:37.337Z,413.30
2023-05-25T07:48:37.293Z,425.10
2023-05-25T07:49:37.295Z,412.40
2023-05-25T07:50:37.299Z,431.10
2023-05-25T07:51:37.287Z,408.30
2023-05-25T07:52:37.289Z,400.40
2023-05-25T07:53:37.302Z,380.80
2023-05-25T07:54:37.315Z,397.00
2023-05-25T07:55:37.274Z,406.20
2023-05-25T07:56:37.278Z,399.30
2023-05-25T07:57:37.276Z,384.80
2023-05-25T07:58:37.270Z,383.00
2023-05-25T07:59:37.298Z,434.80
2023-05-25T08:00:37.276Z,397.30
2023-05-25T08:01:37.261Z,422.40
2023-05-25T08:02:37.626Z,407.30
2023-05-25T08:03:48.835Z,404.10
2023-05-25T08:04:37.427Z,439.00
2023-05-25T08:05:37.253Z,422.90
2023-05-25T08:06:37.255Z,443.40
2023-05-25T08:07:37.249Z,488.10
2023-05-25T08:08:37.249Z,455.20
2023-05-25T08:09:37.264Z,482.40
2023-05-25T08:10:37.249Z,446.60
2023-05-25T08:11:37.240Z,454.40
2023-05-25T08:12:47.835Z,454.50
2023-05-25T08:13:37.237Z,444.60
2023-05-25T08:14:37.236Z,457.80
2023-05-25T08:15:37.232Z,444.70
2023-05-25T08:16:37.236Z,433.60
2023-05-25T08:17:37.242Z,428.80
2023-05-25T08:18:37.228Z,399.90
2023-05-25T08:19:37.220Z,412.40
2023-05-25T08:20:37.270Z,421.40
2023-05-25T08:21:37.212Z,418.10
2023-05-25T08:22:37.215Z,440.70
2023-05-25T08:23:37.207Z,414.30
2023-05-25T08:24:37.208Z,427.30
2023-05-25T08:25:37.223Z,421.70
2023-05-25T08:26:52.997Z,431.10
2023-05-25T08:27:37.203Z,430.90
2023-05-25T08:28:37.201Z,443.40
2023-05-25T08:29:37.192Z,412.60
2023-05-25T08:30:37.225Z,412.50
2023-05-25T08:31:37.323Z,426.20
2023-05-25T08:32:37.226Z,420.70
2023-05-25T08:33:37.187Z,438.60
2023-05-25T08:34:37.189Z,410.30
2023-05-25T08:35:37.180Z,414.90
2023-05-25T08:36:37.176Z,451.60
2023-05-25T08:37:37.175Z,441.60
2023-05-25T08:38:37.173Z,454.90
2023-05-25T08:39:37.179Z,456.80
2023-05-25T08:40:37.170Z,427.80
2023-05-25T08:41:37.191Z,434.90
2023-05-25T08:42:37.168Z,433.00
2023-05-25T08:43:37.166Z,433.30
2023-05-25T08:44:37.175Z,430.40
2023-05-25T08:45:40.518Z,427.30
2023-05-25T08:46:37.167Z,433.40
2023-05-25T08:47:37.178Z,422.70
2023-05-25T08:48:41.869Z,443.90
2023-05-25T08:49:37.223Z,413.50
2023-05-25T08:50:37.161Z,436.00
2023-05-25T08:51:37.155Z,446.90
2023-05-25T08:52:37.149Z,443.10
2023-05-25T08:53:37.143Z,437.10
2023-05-25T08:54:37.145Z,455.10
2023-05-25T08:55:37.134Z,442.90
2023-05-25T08:56:37.199Z,423.60
2023-05-25T08:57:37.159Z,451.20
2023-05-25T08:58:37.129Z,436.00
2023-05-25T08:59:37.129Z,416.30
2023-05-25T09:00:37.121Z,465.40
2023-05-25T09:01:37.163Z,434.00
2023-05-25T09:02:37.646Z,442.00
2023-05-25T09:03:37.181Z,420.60
2023-05-25T09:04:37.122Z,442.70
2023-05-25T09:05:38.186Z,451.30
2023-05-25T09:06:37.129Z,467.20
2023-05-25T09:07:37.113Z,453.50
2023-05-25T09:08:37.100Z,477.40
2023-05-25T09:09:37.108Z,449.80
2023-05-25T09:10:37.120Z,437.30
2023-05-25T09:11:40.361Z,445.40
2023-05-25T09:12:37.099Z,449.30
2023-05-25T09:13:37.115Z,495.90
2023-05-25T09:14:37.094Z,483.30
2023-05-25T09:15:37.089Z,430.90
2023-05-25T09:16:37.124Z,457.50
2023-05-25T09:17:38.259Z,455.70
2023-05-25T09:18:37.098Z,434.80
2023-05-25T09:19:37.087Z,458.90
2023-05-25T09:20:37.108Z,472.30
2023-05-25T09:21:37.075Z,438.50
2023-05-25T09:22:37.073Z,473.60
2023-05-25T09:23:37.070Z,481.90
2023-05-25T09:24:37.078Z,435.80
2023-05-25T09:25:37.070Z,438.50
2023-05-25T09:26:37.077Z,447.00
2023-05-25T09:27:37.079Z,482.90
2023-05-25T09:28:37.060Z,421.50
2023-05-25T09:29:37.080Z,433.20
2023-05-25T09:30:37.055Z,452.80
2023-05-25T09:31:37.076Z,454.40
2023-05-25T09:32:37.078Z,454.70
2023-05-25T09:33:37.264Z,458.70
2023-05-25T09:34:37.052Z,448.90
2023-05-25T09:35:37.045Z,439.90
2023-05-25T09:36:37.115Z,451.20
2023-05-25T09:37:37.304Z,463.00
2023-05-25T09:38:37.236Z,443.90
2023-05-25T09:39:37.158Z,420.60
2023-05-25T09:40:37.050Z,457.00
2023-05-25T09:41:37.034Z,478.50
2023-05-25T09:42:37.035Z,470.10
2023-05-25T09:43:41.943Z,457.40
2023-05-25T09:44:37.043Z,455.70
2023-05-25T09:45:38.367Z,432.10
2023-05-25T09:46:37.123Z,447.60
2023-05-25T09:47:37.039Z,426.90
2023-05-25T09:48:37.023Z,448.60
2023-05-25T09:49:37.023Z,446.90
2023-05-25T09:50:37.020Z,431.20
2023-05-25T09:51:37.203Z,434.70
2023-05-25T09:52:37.012Z,440.00
2023-05-25T09:53:37.024Z,444.30
2023-05-25T09:54:37.004Z,443.60
2023-05-25T09:55:51.449Z,462.60
2023-05-25T09:56:36.992Z,471.10
2023-05-25T09:57:36.996Z,447.20
2023-05-25T09:58:36.991Z,472.40
2023-05-25T09:59:37.021Z,481.90
2023-05-25T10:00:36.996Z,478.00
2023-05-25T10:01:37.058Z,442.60
2023-05-25T10:02:37.015Z,456.80
2023-05-25T10:03:38.838Z,466.60
2023-05-25T10:04:37.042Z,492.00
2023-05-25T10:05:36.988Z,484.50
2023-05-25T10:06:36.975Z,472.10
2023-05-25T10:07:36.978Z,513.80
2023-05-25T10:08:36.966Z,542.70
2023-05-25T10:09:36.968Z,508.10
2023-05-25T10:10:36.970Z,525.10
2023-05-25T10:11:36.990Z,511.90
2023-05-25T10:12:36.956Z,486.80
2023-05-25T10:13:36.962Z,477.00
2023-05-25T10:14:36.972Z,496.20
2023-05-25T10:15:36.989Z,570.70
2023-05-25T10:16:37.027Z,531.60
2023-05-25T10:17:37.064Z,555.40
2023-05-25T10:18:36.948Z,500.40
2023-05-25T10:19:36.942Z,514.50
2023-05-25T10:20:36.972Z,536.30
2023-05-25T10:21:36.949Z,641.40
2023-05-25T10:22:36.940Z,585.30
2023-05-25T10:23:36.937Z,561.90
2023-05-25T10:24:36.948Z,602.50
2023-05-25T10:25:36.939Z,555.20
2023-05-25T10:26:36.924Z,479.50
2023-05-25T10:27:36.937Z,571.00
2023-05-25T10:28:36.930Z,529.10
2023-05-25T10:29:36.926Z,515.50
2023-05-25T10:30:36.922Z,525.30
2023-05-25T10:31:36.938Z,515.00
2023-05-25T10:32:36.987Z,485.80
2023-05-25T10:33:36.925Z,473.40
2023-05-25T10:34:36.905Z,497.20
2023-05-25T10:35:47.001Z,505.20
2023-05-25T10:36:36.907Z,529.30
2023-05-25T10:37:36.904Z,497.00
2023-05-25T10:38:36.901Z,498.90
2023-05-25T10:39:36.897Z,496.10
2023-05-25T10:40:36.892Z,505.60
2023-05-25T10:41:36.910Z,515.60
2023-05-25T10:42:36.895Z,519.00
2023-05-25T10:43:36.901Z,512.60
2023-05-25T10:44:36.894Z,539.20
2023-05-25T10:45:36.896Z,512.80
2023-05-25T10:46:36.936Z,528.00
2023-05-25T10:47:36.977Z,506.70
2023-05-25T10:48:36.893Z,523.40
2023-05-25T10:49:36.887Z,565.20
2023-05-25T10:50:36.861Z,515.40
2023-05-25T10:51:36.863Z,523.70
2023-05-25T10:52:36.857Z,539.80
2023-05-25T10:53:36.855Z,437.50
2023-05-25T10:54:36.856Z,475.50
2023-05-25T10:55:36.852Z,431.40
2023-05-25T10:56:36.858Z,486.80
2023-05-25T10:57:36.851Z,463.40
2023-05-25T10:58:36.841Z,480.00
2023-05-25T10:59:36.838Z,481.20
2023-05-25T11:00:36.927Z,484.10
2023-05-25T11:01:36.974Z,511.40
2023-05-25T11:02:36.929Z,471.20
2023-05-25T11:03:36.826Z,437.90
2023-05-25T11:04:36.873Z,450.40
2023-05-25T11:05:36.867Z,453.80
2023-05-25T11:06:36.819Z,408.30
2023-05-25T11:07:36.819Z,437.10
2023-05-25T11:08:37.267Z,430.00
2023-05-25T11:09:36.815Z,398.00
2023-05-25T11:10:36.812Z,438.60
2023-05-25T11:11:36.809Z,460.60
2023-05-25T11:12:36.811Z,492.50
2023-05-25T11:13:38.928Z,518.00
2023-05-25T11:14:36.803Z,438.10
2023-05-25T11:15:36.822Z,460.80
2023-05-25T11:16:36.843Z,455.40
2023-05-25T11:17:36.836Z,461.80
2023-05-25T11:18:36.793Z,461.00
2023-05-25T11:19:37.225Z,482.20
2023-05-25T11:20:36.815Z,475.20
2023-05-25T11:21:36.808Z,479.40
2023-05-25T11:22:36.780Z,475.60
2023-05-25T11:23:36.783Z,520.20
2023-05-25T11:24:36.783Z,495.50
2023-05-25T11:25:37.227Z,490.80
2023-05-25T11:26:36.784Z,479.30
2023-05-25T11:27:36.774Z,495.40
2023-05-25T11:28:36.769Z,514.40
2023-05-25T11:29:36.770Z,468.20
2023-05-25T11:30:36.893Z,452.70
2023-05-25T11:31:41.407Z,488.60
2023-05-25T11:32:36.803Z,505.00
2023-05-25T11:33:36.755Z,467.10
2023-05-25T11:34:36.756Z,462.50
2023-05-25T11:35:36.761Z,487.10
2023-05-25T11:36:36.756Z,465.90
2023-05-25T11:37:36.768Z,474.40
2023-05-25T11:38:36.746Z,448.30
2023-05-25T11:39:36.748Z,500.00
2023-05-25T11:40:40.060Z,500.00
2023-05-25T11:41:36.826Z,460.20
2023-05-25T11:42:36.735Z,480.90
2023-05-25T11:43:36.745Z,434.60
2023-05-25T11:44:36.842Z,438.00
2023-05-25T11:45:36.737Z,456.20
2023-05-25T11:46:36.735Z,443.10
2023-05-25T11:47:38.175Z,415.00
2023-05-25T11:48:36.722Z,454.10
2023-05-25T11:49:36.729Z,460.80
2023-05-25T11:50:36.729Z,453.40
2023-05-25T11:51:36.716Z,454.10
2023-05-25T11:52:36.715Z,432.90
2023-05-25T11:53:36.731Z,421.90
2023-05-25T11:54:36.708Z,457.10
2023-05-25T11:55:36.716Z,462.70
2023-05-25T11:56:36.711Z,436.10
2023-05-25T11:57:36.698Z,428.70
2023-05-25T11:58:36.702Z,433.60
2023-05-25T11:59:36.705Z,440.10
2023-05-25T12:00:36.697Z,436.70
2023-05-25T12:01:36.724Z,444.50
2023-05-25T12:02:36.727Z,457.10
2023-05-25T12:03:36.809Z,440.10
2023-05-25T12:04:36.786Z,450.90
2023-05-25T12:05:36.729Z,446.10
2023-05-25T12:06:36.807Z,455.30
2023-05-25T12:07:36.677Z,479.90
2023-05-25T12:08:36.685Z,466.00
2023-05-25T12:09:36.726Z,483.90
2023-05-25T12:10:36.670Z,453.20
2023-05-25T12:11:36.666Z,460.30
2023-05-25T12:12:36.662Z,450.50
2023-05-25T12:13:36.863Z,464.10
2023-05-25T12:14:36.658Z,468.60
2023-05-25T12:15:36.657Z,458.30
2023-05-25T12:16:36.671Z,511.50
2023-05-25T12:17:36.676Z,473.60
2023-05-25T12:18:36.661Z,437.60
2023-05-25T12:19:36.654Z,478.00
2023-05-25T12:20:36.673Z,433.10
2023-05-25T12:21:37.377Z,445.10
2023-05-25T12:22:36.645Z,388.80
2023-05-25T12:23:36.639Z,402.50
2023-05-25T12:24:36.636Z,377.90
2023-05-25T12:25:49.547Z,410.00
2023-05-25T12:26:36.632Z,416.00
2023-05-25T12:27:36.632Z,377.80
2023-05-25T12:28:36.630Z,386.10